sensor_id;sensor_type;location;lat;lon;timestamp;pressure;altitude;pressure_sealevel;temperature;humidity
23677;BME280;31493;49.058;12.190;2023-04-03T00:02:08;96691.53;;;1.34;100.00
23677;BME280;31493;49.058;12.190;2023-04-03T00:04:35;96688.94;;;1.38;100.00
23677;BME280;31493;49.058;12.190;2023-04-03T00:07:04;96694.06;;;1.36;100.00
23677;BME280;31493;49.058;12.190;2023-04-03T00:09:31;96693.13;;;1.40;100.00
23677;BME280;31493;49.058;12.190;2023-04-03T00:11:58;96694.16;;;1.31;100.00
23677;BME280;31493;49.058;12.190;2023-04-03T00:14:25;96699.31;;;1.28;100.00
23677;BME280;31493;49.058;12.190;2023-04-03T00:16:53;96688.91;;;1.39;100.00
23677;BME280;31493;49.058;12.190;2023-04-03T00:19:20;96700.19;;;1.27;100.00
23677;BME280;31493;49.058;12.190;2023-04-03T00:21:47;96694.22;;;1.30;100.00
23677;BME280;31493;49.058;12.190;2023-04-03T00:24:15;96699.31;;;1.30;100.00
23677;BME280;31493;49.058;12.190;2023-04-03T00:26:42;96703.59;;;1.28;100.00
23677;BME280;31493;49.058;12.190;2023-04-03T00:29:09;96703.31;;;1.40;100.00
23677;BME280;31493;49.058;12.190;2023-04-03T00:31:36;96703.50;;;1.32;100.00
23677;BME280;31493;49.058;12.190;2023-04-03T00:34:03;96711.81;;;1.42;100.00
23677;BME280;31493;49.058;12.190;2023-04-03T00:36:30;96710.06;;;1.44;100.00
23677;BME280;31493;49.058;12.190;2023-04-03T00:38:57;96699.31;;;1.30;100.00
23677;BME280;31493;49.058;12.190;2023-04-03T00:41:26;96702.41;;;1.44;100.00
23677;BME280;31493;49.058;12.190;2023-04-03T00:43:53;96691.41;;;1.41;100.00
23677;BME280;31493;49.058;12.190;2023-04-03T00:46:20;96696.88;;;1.63;100.00
23677;BME280;31493;49.058;12.190;2023-04-03T00:48:48;96700.44;;;1.55;100.00
23677;BME280;31493;49.058;12.190;2023-04-03T00:51:18;96704.91;;;1.46;100.00
23677;BME280;31493;49.058;12.190;2023-04-03T00:53:49;96700.78;;;1.40;100.00
23677;BME280;31493;49.058;12.190;2023-04-03T00:56:19;96697.56;;;1.32;100.00
23677;BME280;31493;49.058;12.190;2023-04-03T00:58:53;96706.88;;;1.33;100.00
23677;BME280;31493;49.058;12.190;2023-04-03T01:01:24;96693.38;;;1.29;100.00
23677;BME280;31493;49.058;12.190;2023-04-03T01:03:51;96694.31;;;1.25;100.00
23677;BME280;31493;49.058;12.190;2023-04-03T01:06:21;96700.31;;;1.23;100.00
23677;BME280;31493;49.058;12.190;2023-04-03T01:08:52;96695.03;;;1.30;100.00
23677;BME280;31493;49.058;12.190;2023-04-03T01:11:20;96703.53;;;1.31;100.00
23677;BME280;31493;49.058;12.190;2023-04-03T01:13:47;96700.28;;;1.24;100.00
23677;BME280;31493;49.058;12.190;2023-04-03T01:16:16;96695.94;;;1.29;100.00
23677;BME280;31493;49.058;12.190;2023-04-03T01:18:43;96692.59;;;1.26;100.00
23677;BME280;31493;49.058;12.190;2023-04-03T01:21:36;96698.41;;;1.32;100.00
23677;BME280;31493;49.058;12.190;2023-04-03T01:24:24;96700.91;;;1.36;100.00
23677;BME280;31493;49.058;12.190;2023-04-03T01:26:53;96702.13;;;1.16;100.00
23677;BME280;31493;49.058;12.190;2023-04-03T01:29:20;96701.22;;;1.20;100.00
23677;BME280;31493;49.058;12.190;2023-04-03T01:31:51;96695.22;;;1.23;100.00
23677;BME280;31493;49.058;12.190;2023-04-03T01:34:19;96700.44;;;1.17;100.00
23677;BME280;31493;49.058;12.190;2023-04-03T01:36:46;96706.34;;;1.19;100.00
23677;BME280;31493;49.058;12.190;2023-04-03T01:39:13;96706.31;;;1.20;100.00
23677;BME280;31493;49.058;12.190;2023-04-03T01:41:40;96709.78;;;1.18;100.00
23677;BME280;31493;49.058;12.190;2023-04-03T01:44:07;96715.78;;;1.14;100.00
23677;BME280;31493;49.058;12.190;2023-04-03T01:46:34;96710.66;;;1.15;100.00
23677;BME280;31493;49.058;12.190;2023-04-03T01:49:04;96708.09;;;1.17;100.00
23677;BME280;31493;49.058;12.190;2023-04-03T01:51:31;96711.44;;;1.19;100.00
23677;BME280;31493;49.058;12.190;2023-04-03T01:53:59;96713.31;;;1.11;100.00
23677;BME280;31493;49.058;12.190;2023-04-03T01:56:26;96710.66;;;1.17;100.00
23677;BME280;31493;49.058;12.190;2023-04-03T01:58:53;96717.44;;;1.16;100.00
23677;BME280;31493;49.058;12.190;2023-04-03T02:01:20;96719.28;;;1.10;100.00
23677;BME280;31493;49.058;12.190;2023-04-03T02:03:47;96703.25;;;1.04;100.00
23677;BME280;31493;49.058;12.190;2023-04-03T02:06:15;96707.34;;;1.10;100.00
23677;BME280;31493;49.058;12.190;2023-04-03T02:08:42;96707.47;;;1.04;100.00
23677;BME280;31493;49.058;12.190;2023-04-03T02:11:10;96716.84;;;1.03;100.00
23677;BME280;31493;49.058;12.190;2023-04-03T02:13:37;96710.94;;;1.01;100.00
23677;BME280;31493;49.058;12.190;2023-04-03T02:16:07;96703.97;;;1.10;100.00
23677;BME280;31493;49.058;12.190;2023-04-03T02:18:35;96719.47;;;1.00;100.00
23677;BME280;31493;49.058;12.190;2023-04-03T02:21:03;96711.78;;;1.02;100.00
23677;BME280;31493;49.058;12.190;2023-04-03T02:23:31;96722.72;;;1.07;100.00
23677;BME280;31493;49.058;12.190;2023-04-03T02:26:06;96716.63;;;1.14;100.00
23677;BME280;31493;49.058;12.190;2023-04-03T02:28:33;96714.22;;;1.08;100.00
23677;BME280;31493;49.058;12.190;2023-04-03T02:31:00;96717.69;;;1.04;100.00
23677;BME280;31493;49.058;12.190;2023-04-03T02:33:27;96714.28;;;1.03;100.00
23677;BME280;31493;49.058;12.190;2023-04-03T02:35:55;96720.38;;;0.96;100.00
23677;BME280;31493;49.058;12.190;2023-04-03T02:38:23;96708.44;;;1.00;100.00
23677;BME280;31493;49.058;12.190;2023-04-03T02:40:52;96708.53;;;0.95;100.00
23677;BME280;31493;49.058;12.190;2023-04-03T02:43:18;96712.81;;;0.93;100.00
23677;BME280;31493;49.058;12.190;2023-04-03T02:45:46;96722.94;;;0.96;100.00
23677;BME280;31493;49.058;12.190;2023-04-03T02:48:12;96719.56;;;0.96;100.00
23677;BME280;31493;49.058;12.190;2023-04-03T02:50:41;96726.22;;;1.03;100.00
23677;BME280;31493;49.058;12.190;2023-04-03T02:53:08;96713.47;;;1.03;100.00
23677;BME280;31493;49.058;12.190;2023-04-03T02:55:35;96716.97;;;0.97;100.00
23677;BME280;31493;49.058;12.190;2023-04-03T02:58:03;96723.78;;;0.98;100.00
23677;BME280;31493;49.058;12.190;2023-04-03T03:00:30;96704.19;;;1.00;100.00
23677;BME280;31493;49.058;12.190;2023-04-03T03:02:57;96710.28;;;0.93;100.00
23677;BME280;31493;49.058;12.190;2023-04-03T03:05:24;96714.50;;;0.94;100.00
23677;BME280;31493;49.058;12.190;2023-04-03T03:07:52;96718.72;;;0.95;100.00
23677;BME280;31493;49.058;12.190;2023-04-03T03:10:19;96717.13;;;0.90;100.00
23677;BME280;31493;49.058;12.190;2023-04-03T03:12:46;96718.75;;;0.94;100.00
23677;BME280;31493;49.058;12.190;2023-04-03T03:15:14;96707.75;;;0.90;100.00
23677;BME280;31493;49.058;12.190;2023-04-03T03:17:42;96715.25;;;0.99;100.00
23677;BME280;31493;49.058;12.190;2023-04-03T03:20:11;96711.81;;;1.00;100.00
23677;BME280;31493;49.058;12.190;2023-04-03T03:22:39;96712.81;;;0.92;100.00
23677;BME280;31493;49.058;12.190;2023-04-03T03:25:07;96711.16;;;0.92;100.00
23677;BME280;31493;49.058;12.190;2023-04-03T03:27:34;96717.03;;;0.94;100.00
23677;BME280;31493;49.058;12.190;2023-04-03T03:30:02;96707.84;;;0.87;100.00
23677;BME280;31493;49.058;12.190;2023-04-03T03:32:30;96714.66;;;0.87;100.00
23677;BME280;31493;49.058;12.190;2023-04-03T03:34:57;96713.78;;;0.88;100.00
23677;BME280;31493;49.058;12.190;2023-04-03T03:37:24;96717.03;;;0.94;100.00
23677;BME280;31493;49.058;12.190;2023-04-03T03:39:52;96703.50;;;0.92;100.00
23677;BME280;31493;49.058;12.190;2023-04-03T03:42:19;96706.06;;;0.91;100.00
23677;BME280;31493;49.058;12.190;2023-04-03T03:44:46;96708.69;;;0.88;100.00
23677;BME280;31493;49.058;12.190;2023-04-03T03:47:13;96716.25;;;0.91;100.00
23677;BME280;31493;49.058;12.190;2023-04-03T03:49:42;96713.78;;;0.88;100.00
23677;BME280;31493;49.058;12.190;2023-04-03T03:52:09;96715.41;;;0.90;100.00
23677;BME280;31493;49.058;12.190;2023-04-03T03:54:36;96710.47;;;0.83;100.00
23677;BME280;31493;49.058;12.190;2023-04-03T03:57:03;96717.72;;;1.02;100.00
23677;BME280;31493;49.058;12.190;2023-04-03T03:59:31;96715.38;;;0.92;100.00
23677;BME280;31493;49.058;12.190;2023-04-03T04:01:58;96722.19;;;0.91;100.00
23677;BME280;31493;49.058;12.190;2023-04-03T04:04:26;96706.75;;;0.99;100.00
23677;BME280;31493;49.058;12.190;2023-04-03T04:06:54;96714.44;;;0.96;100.00
23677;BME280;31493;49.058;12.190;2023-04-03T04:09:21;96719.50;;;0.99;100.00
23677;BME280;31493;49.058;12.190;2023-04-03T04:11:48;96712.59;;;1.04;100.00
23677;BME280;31493;49.058;12.190;2023-04-03T04:14:15;96724.59;;;0.99;100.00
23677;BME280;31493;49.058;12.190;2023-04-03T04:16:42;96719.47;;;1.00;100.00
23677;BME280;31493;49.058;12.190;2023-04-03T04:19:09;96731.59;;;0.89;100.00
23677;BME280;31493;49.058;12.190;2023-04-03T04:21:36;96724.84;;;0.85;100.00
23677;BME280;31493;49.058;12.190;2023-04-03T04:24:05;96726.53;;;0.88;100.00
23677;BME280;31493;49.058;12.190;2023-04-03T04:26:32;96729.91;;;0.88;100.00
23677;BME280;31493;49.058;12.190;2023-04-03T04:28:59;96725.66;;;0.89;100.00
23677;BME280;31493;49.058;12.190;2023-04-03T04:31:26;96720.59;;;0.87;100.00
23677;BME280;31493;49.058;12.190;2023-04-03T04:33:53;96737.75;;;0.77;100.00
23677;BME280;31493;49.058;12.190;2023-04-03T04:36:21;96729.22;;;0.78;100.00
23677;BME280;31493;49.058;12.190;2023-04-03T04:38:48;96721.56;;;0.80;100.00
23677;BME280;31493;49.058;12.190;2023-04-03T04:41:20;96720.09;;;0.67;100.00
23677;BME280;31493;49.058;12.190;2023-04-03T04:43:48;96727.41;;;0.85;100.00
23677;BME280;31493;49.058;12.190;2023-04-03T04:46:15;96730.78;;;0.86;100.00
23677;BME280;31493;49.058;12.190;2023-04-03T04:48:42;96734.31;;;0.78;100.00
23677;BME280;31493;49.058;12.190;2023-04-03T04:51:10;96724.44;;;0.63;100.00
23677;BME280;31493;49.058;12.190;2023-04-03T04:53:37;96732.72;;;0.73;100.00
23677;BME280;31493;49.058;12.190;2023-04-03T04:56:05;96742.03;;;0.75;100.00
23677;BME280;31493;49.058;12.190;2023-04-03T04:58:35;96742.09;;;0.72;100.00
23677;BME280;31493;49.058;12.190;2023-04-03T05:01:02;96743.59;;;0.83;100.00
23677;BME280;31493;49.058;12.190;2023-04-03T05:03:30;96734.47;;;0.71;100.00
23677;BME280;31493;49.058;12.190;2023-04-03T05:05:57;96740.25;;;0.80;100.00
23677;BME280;31493;49.058;12.190;2023-04-03T05:08:24;96741.31;;;0.69;100.00
23677;BME280;31493;49.058;12.190;2023-04-03T05:10:51;96742.03;;;0.75;100.00
23677;BME280;31493;49.058;12.190;2023-04-03T05:13:18;96736.06;;;0.76;100.00
23677;BME280;31493;49.058;12.190;2023-04-03T05:15:47;96742.88;;;0.76;100.00
23677;BME280;31493;49.058;12.190;2023-04-03T05:18:14;96739.47;;;0.77;100.00
23677;BME280;31493;49.058;12.190;2023-04-03T05:20:41;96736.03;;;0.78;100.00
23677;BME280;31493;49.058;12.190;2023-04-03T05:23:09;96735.44;;;0.65;100.00
23677;BME280;31493;49.058;12.190;2023-04-03T05:25:37;96739.41;;;0.80;100.00
23677;BME280;31493;49.058;12.190;2023-04-03T05:28:04;96753.19;;;0.70;100.00
23677;BME280;31493;49.058;12.190;2023-04-03T05:30:32;96748.97;;;0.67;100.00
23677;BME280;31493;49.058;12.190;2023-04-03T05:33:00;96754.00;;;0.72;100.00
23677;BME280;31493;49.058;12.190;2023-04-03T05:35:27;96749.72;;;0.72;100.00
23677;BME280;31493;49.058;12.190;2023-04-03T05:37:54;96750.47;;;0.79;100.00
23677;BME280;31493;49.058;12.190;2023-04-03T05:40:21;96751.41;;;0.75;100.00
23677;BME280;31493;49.058;12.190;2023-04-03T05:42:49;96758.25;;;0.71;100.00
23677;BME280;31493;49.058;12.190;2023-04-03T05:45:16;96748.75;;;0.79;100.00
23677;BME280;31493;49.058;12.190;2023-04-03T05:47:43;96740.59;;;0.61;100.00
23677;BME280;31493;49.058;12.190;2023-04-03T05:50:11;96755.00;;;0.63;100.00
23677;BME280;31493;49.058;12.190;2023-04-03T05:52:42;96754.72;;;0.80;100.00
23677;BME280;31493;49.058;12.190;2023-04-03T05:55:11;96747.06;;;0.78;100.00
23677;BME280;31493;49.058;12.190;2023-04-03T05:57:38;96757.31;;;0.77;100.00
23677;BME280;31493;49.058;12.190;2023-04-03T06:00:06;96762.09;;;0.94;100.00
23677;BME280;31493;49.058;12.190;2023-04-03T06:02:35;96760.53;;;0.87;100.00
23677;BME280;31493;49.058;12.190;2023-04-03T06:05:03;96762.22;;;0.88;100.00
23677;BME280;31493;49.058;12.190;2023-04-03T06:07:31;96761.31;;;0.90;100.00
23677;BME280;31493;49.058;12.190;2023-04-03T06:09:58;96762.84;;;0.97;100.00
23677;BME280;31493;49.058;12.190;2023-04-03T06:12:26;96770.41;;;1.03;100.00
23677;BME280;31493;49.058;12.190;2023-04-03T06:14:54;96765.28;;;1.05;100.00
23677;BME280;31493;49.058;12.190;2023-04-03T06:17:21;96766.03;;;1.08;100.00
23677;BME280;31493;49.058;12.190;2023-04-03T06:19:49;96763.56;;;1.05;100.00
23677;BME280;31493;49.058;12.190;2023-04-03T06:22:16;96761.72;;;1.14;100.00
23677;BME280;31493;49.058;12.190;2023-04-03T06:24:44;96767.34;;;1.28;100.00
23677;BME280;31493;49.058;12.190;2023-04-03T06:27:12;96770.88;;;1.22;100.00
23677;BME280;31493;49.058;12.190;2023-04-03T06:29:39;96773.50;;;1.19;100.00
23677;BME280;31493;49.058;12.190;2023-04-03T06:32:06;96767.47;;;1.23;100.00
23677;BME280;31493;49.058;12.190;2023-04-03T06:34:33;96774.34;;;1.20;100.00
23677;BME280;31493;49.058;12.190;2023-04-03T06:37:01;96769.06;;;1.29;100.00
23677;BME280;31493;49.058;12.190;2023-04-03T06:39:28;96778.41;;;1.28;100.00
23677;BME280;31493;49.058;12.190;2023-04-03T06:41:56;96774.16;;;1.29;100.00
23677;BME280;31493;49.058;12.190;2023-04-03T06:44:23;96779.16;;;1.33;100.00
23677;BME280;31493;49.058;12.190;2023-04-03T06:46:50;96783.09;;;1.50;100.00
23677;BME280;31493;49.058;12.190;2023-04-03T06:49:17;96774.63;;;1.48;100.00
23677;BME280;31493;49.058;12.190;2023-04-03T06:51:44;96784.88;;;1.45;100.00
23677;BME280;31493;49.058;12.190;2023-04-03T06:54:11;96784.03;;;1.44;100.00
23677;BME280;31493;49.058;12.190;2023-04-03T06:56:38;96786.78;;;1.35;100.00
23677;BME280;31493;49.058;12.190;2023-04-03T06:59:07;96791.66;;;1.46;100.00
23677;BME280;31493;49.058;12.190;2023-04-03T07:01:34;96792.06;;;1.68;100.00
23677;BME280;31493;49.058;12.190;2023-04-03T07:04:01;96797.72;;;1.40;100.00
23677;BME280;31493;49.058;12.190;2023-04-03T07:06:28;96797.47;;;1.52;100.00
23677;BME280;31493;49.058;12.190;2023-04-03T07:08:56;96807.94;;;1.42;100.00
23677;BME280;31493;49.058;12.190;2023-04-03T07:11:24;96805.28;;;1.45;100.00
23677;BME280;31493;49.058;12.190;2023-04-03T07:13:52;96807.59;;;1.57;100.00
23677;BME280;31493;49.058;12.190;2023-04-03T07:16:20;96811.44;;;1.36;99.53
23677;BME280;31493;49.058;12.190;2023-04-03T07:18:47;96813.88;;;1.41;99.49
23677;BME280;31493;49.058;12.190;2023-04-03T07:21:15;96820.84;;;1.32;98.79
23677;BME280;31493;49.058;12.190;2023-04-03T07:23:42;96816.03;;;1.60;99.06
23677;BME280;31493;49.058;12.190;2023-04-03T07:26:09;96820.41;;;1.55;98.70
23677;BME280;31493;49.058;12.190;2023-04-03T07:28:36;96824.75;;;1.50;98.73
23677;BME280;31493;49.058;12.190;2023-04-03T07:31:05;96830.91;;;1.40;96.87
23677;BME280;31493;49.058;12.190;2023-04-03T07:33:35;96825.91;;;1.36;96.03
23677;BME280;31493;49.058;12.190;2023-04-03T07:36:02;96828.06;;;1.55;96.87
23677;BME280;31493;49.058;12.190;2023-04-03T07:38:30;96835.75;;;1.54;95.55
23677;BME280;31493;49.058;12.190;2023-04-03T07:40:57;96837.53;;;1.49;92.10
23677;BME280;31493;49.058;12.190;2023-04-03T07:43:24;96835.72;;;1.55;90.81
23677;BME280;31493;49.058;12.190;2023-04-03T07:45:52;96842.50;;;1.56;89.96
23677;BME280;31493;49.058;12.190;2023-04-03T07:48:21;96845.03;;;1.56;89.14
23677;BME280;31493;49.058;12.190;2023-04-03T07:50:49;96842.28;;;1.67;88.23
23677;BME280;31493;49.058;12.190;2023-04-03T07:53:17;96855.47;;;1.87;88.53
23677;BME280;31493;49.058;12.190;2023-04-03T07:55:46;96847.44;;;1.64;88.46
23677;BME280;31493;49.058;12.190;2023-04-03T07:58:15;96849.50;;;1.87;88.99
23677;BME280;31493;49.058;12.190;2023-04-03T08:00:43;96850.22;;;1.94;87.48
23677;BME280;31493;49.058;12.190;2023-04-03T08:03:10;96847.00;;;1.84;86.73
23677;BME280;31493;49.058;12.190;2023-04-03T08:05:38;96831.69;;;1.84;86.03
23677;BME280;31493;49.058;12.190;2023-04-03T08:08:07;96842.66;;;1.89;85.24
23677;BME280;31493;49.058;12.190;2023-04-03T08:10:34;96848.25;;;2.06;85.06
23677;BME280;31493;49.058;12.190;2023-04-03T08:13:02;96840.75;;;1.99;83.74
23677;BME280;31493;49.058;12.190;2023-04-03T08:15:30;96849.34;;;1.95;82.84
23677;BME280;31493;49.058;12.190;2023-04-03T08:17:58;96848.47;;;1.97;82.52
23677;BME280;31493;49.058;12.190;2023-04-03T08:20:26;96834.84;;;1.95;82.16
23677;BME280;31493;49.058;12.190;2023-04-03T08:22:53;96840.59;;;2.06;83.05
23677;BME280;31493;49.058;12.190;2023-04-03T08:25:22;96851.81;;;2.36;81.80
23677;BME280;31493;49.058;12.190;2023-04-03T08:27:49;96850.88;;;2.02;79.26
23677;BME280;31493;49.058;12.190;2023-04-03T08:30:18;96832.66;;;2.19;79.03
23677;BME280;31493;49.058;12.190;2023-04-03T08:32:45;96844.06;;;2.04;78.13
23677;BME280;31493;49.058;12.190;2023-04-03T08:35:12;96855.44;;;2.26;78.40
23677;BME280;31493;49.058;12.190;2023-04-03T08:37:39;96850.34;;;1.87;77.54
23677;BME280;31493;49.058;12.190;2023-04-03T08:40:12;96848.41;;;1.99;78.54
23677;BME280;31493;49.058;12.190;2023-04-03T08:42:48;96845.78;;;2.02;77.85
23677;BME280;31493;49.058;12.190;2023-04-03T08:45:21;96838.13;;;2.39;77.41
23677;BME280;31493;49.058;12.190;2023-04-03T08:47:55;96848.25;;;2.06;73.91
23677;BME280;31493;49.058;12.190;2023-04-03T08:50:29;96855.53;;;2.23;72.48
23677;BME280;31493;49.058;12.190;2023-04-03T08:52:58;96843.50;;;2.64;71.23
23677;BME280;31493;49.058;12.190;2023-04-03T08:55:28;96836.50;;;2.72;69.05
23677;BME280;31493;49.058;12.190;2023-04-03T08:58:01;96838.22;;;2.70;68.47
23677;BME280;31493;49.058;12.190;2023-04-03T09:00:44;96853.47;;;2.39;66.94
23677;BME280;31493;49.058;12.190;2023-04-03T09:03:13;96840.47;;;2.48;66.16
23677;BME280;31493;49.058;12.190;2023-04-03T09:05:45;96854.69;;;2.60;68.44
23677;BME280;31493;49.058;12.190;2023-04-03T09:08:21;96863.91;;;2.30;69.34
23677;BME280;31493;49.058;12.190;2023-04-03T09:10:54;96865.00;;;2.18;68.81
23677;BME280;31493;49.058;12.190;2023-04-03T09:13:31;96857.72;;;2.40;69.37
23677;BME280;31493;49.058;12.190;2023-04-03T09:16:02;96858.09;;;2.60;67.96
23677;BME280;31493;49.058;12.190;2023-04-03T09:18:35;96854.47;;;3.03;67.76
23677;BME280;31493;49.058;12.190;2023-04-03T09:21:09;96858.13;;;2.93;66.56
23677;BME280;31493;49.058;12.190;2023-04-03T09:23:44;96858.81;;;3.32;65.25
23677;BME280;31493;49.058;12.190;2023-04-03T09:26:15;96856.09;;;3.38;63.23
23677;BME280;31493;49.058;12.190;2023-04-03T09:28:45;96850.81;;;3.12;61.93
23677;BME280;31493;49.058;12.190;2023-04-03T09:31:16;96853.22;;;3.49;61.52
23677;BME280;31493;49.058;12.190;2023-04-03T09:33:45;96861.47;;;2.96;58.89
23677;BME280;31493;49.058;12.190;2023-04-03T09:36:13;96846.31;;;3.21;58.34
23677;BME280;31493;49.058;12.190;2023-04-03T09:38:40;96851.38;;;3.23;58.90
23677;BME280;31493;49.058;12.190;2023-04-03T09:41:17;96851.66;;;3.45;59.62
23677;BME280;31493;49.058;12.190;2023-04-03T09:43:54;96837.19;;;3.42;59.51
23677;BME280;31493;49.058;12.190;2023-04-03T09:46:29;96853.09;;;3.22;61.36
23677;BME280;31493;49.058;12.190;2023-04-03T09:48:57;96863.34;;;2.88;60.85
23677;BME280;31493;49.058;12.190;2023-04-03T09:51:25;96864.63;;;2.72;62.01
23677;BME280;31493;49.058;12.190;2023-04-03T09:53:54;96864.50;;;2.77;61.05
23677;BME280;31493;49.058;12.190;2023-04-03T09:56:24;96870.00;;;2.95;61.78
23677;BME280;31493;49.058;12.190;2023-04-03T09:59:08;96866.88;;;2.84;58.47
23677;BME280;31493;49.058;12.190;2023-04-03T10:01:41;96848.66;;;2.62;58.92
23677;BME280;31493;49.058;12.190;2023-04-03T10:04:11;96858.16;;;3.26;59.73
23677;BME280;31493;49.058;12.190;2023-04-03T10:06:40;96855.16;;;3.10;57.99
23677;BME280;31493;49.058;12.190;2023-04-03T10:09:18;96844.09;;;3.40;58.08
23677;BME280;31493;49.058;12.190;2023-04-03T10:12:01;96857.66;;;3.44;55.88
23677;BME280;31493;49.058;12.190;2023-04-03T10:14:32;96841.31;;;3.17;53.68
23677;BME280;31493;49.058;12.190;2023-04-03T10:17:02;96844.22;;;3.36;54.88
23677;BME280;31493;49.058;12.190;2023-04-03T10:19:34;96839.50;;;3.83;52.17
23677;BME280;31493;49.058;12.190;2023-04-03T10:22:10;96840.97;;;3.60;51.39
23677;BME280;31493;49.058;12.190;2023-04-03T10:24:52;96835.22;;;4.11;52.72
23677;BME280;31493;49.058;12.190;2023-04-03T10:27:31;96848.38;;;3.71;52.20
23677;BME280;31493;49.058;12.190;2023-04-03T10:30:09;96843.25;;;3.99;53.15
23677;BME280;31493;49.058;12.190;2023-04-03T10:32:52;96834.31;;;3.84;49.55
23677;BME280;31493;49.058;12.190;2023-04-03T10:35:33;96846.09;;;3.29;46.96
23677;BME280;31493;49.058;12.190;2023-04-03T10:38:08;96835.69;;;3.35;47.99
23677;BME280;31493;49.058;12.190;2023-04-03T10:40:45;96822.97;;;3.63;49.89
23677;BME280;31493;49.058;12.190;2023-04-03T10:43:18;96839.25;;;3.61;49.79
23677;BME280;31493;49.058;12.190;2023-04-03T10:45:55;96827.16;;;3.66;49.97
23677;BME280;31493;49.058;12.190;2023-04-03T10:48:34;96834.25;;;3.86;52.55
23677;BME280;31493;49.058;12.190;2023-04-03T10:51:14;96832.38;;;2.99;51.21
23677;BME280;31493;49.058;12.190;2023-04-03T10:53:51;96835.28;;;3.19;51.75
23677;BME280;31493;49.058;12.190;2023-04-03T10:56:22;96827.88;;;3.09;49.78
23677;BME280;31493;49.058;12.190;2023-04-03T10:58:56;96823.84;;;3.33;46.08
23677;BME280;31493;49.058;12.190;2023-04-03T11:01:31;96826.41;;;3.92;48.46
23677;BME280;31493;49.058;12.190;2023-04-03T11:04:01;96822.00;;;4.25;48.26
23677;BME280;31493;49.058;12.190;2023-04-03T11:06:35;96811.66;;;3.41;46.79
23677;BME280;31493;49.058;12.190;2023-04-03T11:09:07;96821.31;;;3.90;48.24
23677;BME280;31493;49.058;12.190;2023-04-03T11:11:43;96820.25;;;3.68;47.34
23677;BME280;31493;49.058;12.190;2023-04-03T11:14:14;96825.50;;;3.94;47.95
23677;BME280;31493;49.058;12.190;2023-04-03T11:16:48;96816.78;;;3.41;47.98
23677;BME280;31493;49.058;12.190;2023-04-03T11:19:21;96834.63;;;3.11;47.99
23677;BME280;31493;49.058;12.190;2023-04-03T11:21:54;96835.00;;;2.97;48.27
23677;BME280;31493;49.058;12.190;2023-04-03T11:24:26;96820.63;;;3.24;47.74
23677;BME280;31493;49.058;12.190;2023-04-03T11:26:55;96812.72;;;3.34;47.08
23677;BME280;31493;49.058;12.190;2023-04-03T11:29:25;96797.00;;;3.46;48.73
23677;BME280;31493;49.058;12.190;2023-04-03T11:35:00;96827.94;;;3.68;49.11
23677;BME280;31493;49.058;12.190;2023-04-03T11:37:33;96819.31;;;3.72;49.80
23677;BME280;31493;49.058;12.190;2023-04-03T11:40:04;96821.06;;;3.99;48.12
23677;BME280;31493;49.058;12.190;2023-04-03T11:42:35;96814.28;;;3.97;48.78
23677;BME280;31493;49.058;12.190;2023-04-03T11:45:17;96802.53;;;4.19;49.59
23677;BME280;31493;49.058;12.190;2023-04-03T11:47:51;96815.47;;;3.26;47.81
23677;BME280;31493;49.058;12.190;2023-04-03T11:50:39;96822.28;;;3.27;49.14
23677;BME280;31493;49.058;12.190;2023-04-03T11:53:35;96821.50;;;3.55;49.04
23677;BME280;31493;49.058;12.190;2023-04-03T12:01:54;96805.78;;;3.96;46.62
23677;BME280;31493;49.058;12.190;2023-04-03T12:04:23;96797.91;;;4.30;46.68
23677;BME280;31493;49.058;12.190;2023-04-03T12:07:13;96793.38;;;4.11;46.94
23677;BME280;31493;49.058;12.190;2023-04-03T12:10:00;96799.88;;;4.49;48.21
23677;BME280;31493;49.058;12.190;2023-04-03T12:12:34;96794.44;;;4.31;48.16
23677;BME280;31493;49.058;12.190;2023-04-03T12:15:22;96799.16;;;4.17;48.38
23677;BME280;31493;49.058;12.190;2023-04-03T12:17:50;96803.38;;;3.62;46.37
23677;BME280;31493;49.058;12.190;2023-04-03T12:20:46;96798.75;;;4.29;47.81
23677;BME280;31493;49.058;12.190;2023-04-03T12:23:29;96794.88;;;3.90;47.06
23677;BME280;31493;49.058;12.190;2023-04-03T12:26:03;96796.59;;;4.17;47.40
23677;BME280;31493;49.058;12.190;2023-04-03T12:28:36;96786.25;;;4.20;47.25
23677;BME280;31493;49.058;12.190;2023-04-03T12:31:05;96792.69;;;4.06;47.85
23677;BME280;31493;49.058;12.190;2023-04-03T12:33:43;96795.19;;;3.49;48.23
23677;BME280;31493;49.058;12.190;2023-04-03T12:36:18;96797.22;;;3.38;49.67
23677;BME280;31493;49.058;12.190;2023-04-03T12:39:10;96793.63;;;4.29;49.88
23677;BME280;31493;49.058;12.190;2023-04-03T12:41:48;96777.19;;;4.37;48.29
23677;BME280;31493;49.058;12.190;2023-04-03T12:44:44;96776.44;;;4.59;49.17
23677;BME280;31493;49.058;12.190;2023-04-03T12:47:22;96777.13;;;3.84;47.95
23677;BME280;31493;49.058;12.190;2023-04-03T12:49:50;96788.38;;;3.48;48.54
23677;BME280;31493;49.058;12.190;2023-04-03T12:52:19;96798.72;;;3.45;49.41
23677;BME280;31493;49.058;12.190;2023-04-03T12:54:51;96775.47;;;3.83;48.14
23677;BME280;31493;49.058;12.190;2023-04-03T12:57:20;96779.19;;;4.53;47.80
23677;BME280;31493;49.058;12.190;2023-04-03T12:59:48;96785.81;;;4.34;46.48
23677;BME280;31493;49.058;12.190;2023-04-03T13:02:22;96774.56;;;4.65;47.58
23677;BME280;31493;49.058;12.190;2023-04-03T13:04:50;96772.28;;;4.30;47.45
23677;BME280;31493;49.058;12.190;2023-04-03T13:07:22;96775.34;;;4.14;46.93
23677;BME280;31493;49.058;12.190;2023-04-03T13:10:14;96775.88;;;4.25;47.39
23677;BME280;31493;49.058;12.190;2023-04-03T13:12:48;96786.91;;;4.27;45.83
23677;BME280;31493;49.058;12.190;2023-04-03T13:15:18;96786.19;;;4.22;46.36
23677;BME280;31493;49.058;12.190;2023-04-03T13:17:46;96773.13;;;4.03;44.78
23677;BME280;31493;49.058;12.190;2023-04-03T13:20:19;96771.91;;;4.41;46.39